Aérodrome :
LOGIN :

S'inscrire | Disclaimer

   EN    FR    IT 

 










Légende :    VFR   VFR Marginal   IFR   IFR Intensif   IFR Très Intensif
Visi : 
Plafond : 
>= 8 km
>= 3000ft
5 à 8 km
1000 à 3000 ft
1500m à 5 km
500 à 1000 ft
800 à 1500m
200 à 500 ft
< 800m
< 200 ft
Symboles :   Orages  Brouillard  Fortes neiges  Fortes précipitations  Vent > 20 kt
SIGMETs :   Divers  Orages  Givrage  Turbulence  Onde Orograph.  Cendres Volcan.






- Altitude de l'aérodrome : 3 ft
- Code IATA : LWR


EHLW - Leuuwarden Air Base

DERNIER METAR :
  • 300255Z AUTO 06007KT 010V110 3500 BR NCD 09/08 Q1027 YLO

METARs EXPIRÉS :
  • 300238Z AUTO 06007KT 360V100 7000 BR NCD 09/09 Q1026 WHT
  • 300225Z AUTO 06007KT 360V120 8000 BR NCD 09/08 Q1027 BLU
  • 300202Z AUTO 06007KT 010V100 8000 BR NCD 09/08 Q1027 BLU
  • 300155Z AUTO 06007KT 010V100 7000 BR NCD 08/08 Q1027 WHT
  • 300125Z AUTO 06007KT 360V100 7000 BR NCD 08/08 Q1027 WHT
  • 300055Z AUTO 06007KT 010V100 9999 NCD 09/08 Q1027 BLU
  • 300008Z AUTO 07007KT 360V120 7000 BR NCD 09/08 Q1027 WHT

TAF TAF EHLW
Valide du 30 à 01h jusqu'au 30 à 13h UTC


300046Z 3001/3013 07007KT CAVOK
PROB30
TEMPO 3001/3005 4000 BR
BECMG 3009/3012 05012G22KT



MET'MAP, la Météo Aéronautique d'un coup d'oeil ! - Copyright ORBIFLY Décembre 2007 - Disclaimer

ORBIFLY MET'MAP TEAM :

Programmation & Développement : Alexandra Zaïnal
Sur une idée originale de : Baudouin d'Aumeries
Assistance à la programmation : Marc-Olivier Méhu
Soutien technique & logistique : Manuel Goepfert

Contact : metmap@orbifly.com




SOURCES & CREDITS :

   NOAA